Time;durP1;ratioP1;P1;durP2;ratioP2;P2;SDS_P1;SDS_P2;PMS_P1;PMS_P2;Temp;Humidity;BMP_temperature;BMP_pressure;BME280_temperature;BME280_humidity;BME280_pressure;Samples;Min_cycle;Max_cycle;Signal;HPM_P1;HPM_P2
2022/08/27 00:01:15;;;;;;;5.25;2.50;;;16.90;99.90;;;;;;5085016;28;20059;-75
2022/08/27 00:03:44;;;;;;;3.17;2.40;;;17.00;99.90;;;;;;5095875;28;20103;-75
2022/08/27 00:06:14;;;;;;;4.10;2.88;;;17.00;99.90;;;;;;5097060;28;20028;-75
2022/08/27 00:08:44;;;;;;;3.73;2.77;;;17.00;99.90;;;;;;5083059;28;20101;-75
2022/08/27 00:11:11;;;;;;;3.10;2.40;;;17.00;99.90;;;;;;5089384;28;20533;-75
2022/08/27 00:13:38;;;;;;;3.30;2.33;;;17.00;99.90;;;;;;5096290;28;20028;-75
2022/08/27 00:16:06;;;;;;;4.88;2.60;;;17.00;99.90;;;;;;5090099;28;20044;-75
2022/08/27 00:18:33;;;;;;;3.47;2.63;;;17.00;99.90;;;;;;5077712;28;20050;-75
2022/08/27 00:21:00;;;;;;;4.15;2.60;;;16.90;99.90;;;;;;5088760;28;20042;-75
2022/08/27 00:23:26;;;;;;;2.92;2.20;;;16.90;99.90;;;;;;5096884;28;20047;-75
2022/08/27 00:25:51;;;;;;;3.15;2.30;;;16.90;99.90;;;;;;5079224;28;20036;-76
2022/08/27 00:28:17;;;;;;;3.00;2.40;;;17.00;99.90;;;;;;5096983;28;20040;-75
2022/08/27 00:30:43;;;;;;;3.08;2.10;;;17.00;99.90;;;;;;5096367;28;20024;-75
2022/08/27 00:33:09;;;;;;;4.88;2.30;;;17.00;99.90;;;;;;5087521;28;20033;-75
2022/08/27 00:35:35;;;;;;;3.13;2.20;;;17.00;99.90;;;;;;5058515;28;20067;-75
2022/08/27 00:38:01;;;;;;;3.80;1.83;;;17.10;99.90;;;;;;5076152;28;20016;-74
2022/08/27 00:40:27;;;;;;;2.83;2.33;;;17.10;99.90;;;;;;5094198;28;20016;-75
2022/08/27 00:42:52;;;;;;;4.90;2.70;;;17.10;99.90;;;;;;5095991;28;20032;-75
2022/08/27 00:45:21;;;;;;;3.53;2.47;;;17.00;99.90;;;;;;5094902;28;20423;-75
2022/08/27 00:47:56;;;;;;;3.20;2.45;;;17.00;99.90;;;;;;5096200;28;20020;-75
2022/08/27 00:50:31;;;;;;;3.10;2.22;;;16.90;99.90;;;;;;5094632;28;20028;-75
2022/08/27 00:53:01;;;;;;;4.13;2.17;;;16.90;99.90;;;;;;5077034;28;20050;-75
2022/08/27 00:55:32;;;;;;;4.77;2.23;;;16.90;99.90;;;;;;5075925;28;20032;-74
2022/08/27 00:58:22;;;;;;;3.70;2.33;;;16.80;99.90;;;;;;5096751;23;20533;-83
2022/08/27 01:00:48;;;;;;;3.08;2.40;;;16.80;99.90;;;;;;5087460;28;20052;-82
2022/08/27 01:03:14;;;;;;;3.42;2.58;;;16.70;99.90;;;;;;5097110;28;20020;-82
2022/08/27 01:05:42;;;;;;;3.75;2.40;;;16.80;99.90;;;;;;5088319;28;20038;-82
2022/08/27 01:08:17;;;;;;;3.10;2.33;;;16.80;99.90;;;;;;5096508;28;20115;-83
2022/08/27 01:10:44;;;;;;;3.20;2.17;;;16.80;99.90;;;;;;5096565;28;20023;-83
2022/08/27 01:13:13;;;;;;;3.55;2.30;;;16.90;99.90;;;;;;5096276;28;20024;-82
2022/08/27 01:15:40;;;;;;;4.22;2.63;;;16.90;99.90;;;;;;5094929;28;20026;-82
2022/08/27 01:18:07;;;;;;;5.22;2.75;;;16.90;99.90;;;;;;5096711;28;20019;-82
2022/08/27 01:21:04;;;;;;;3.80;2.78;;;16.90;99.90;;;;;;5088473;28;20476;-82
2022/08/27 01:23:40;;;;;;;3.65;2.58;;;16.90;99.90;;;;;;5096584;28;20059;-82
2022/08/27 01:26:08;;;;;;;3.60;2.60;;;16.90;99.90;;;;;;5095502;28;20031;-82
2022/08/27 01:28:35;;;;;;;5.47;2.50;;;16.90;99.90;;;;;;5084870;28;20029;-82
2022/08/27 01:31:06;;;;;;;3.65;2.72;;;17.00;99.90;;;;;;5076841;28;20025;-82
2022/08/27 01:33:32;;;;;;;3.47;2.58;;;16.90;99.90;;;;;;5077082;28;20033;-82
2022/08/27 01:35:58;;;;;;;3.33;2.33;;;16.90;99.90;;;;;;5095559;28;20142;-83
2022/08/27 01:38:26;;;;;;;3.50;2.53;;;16.80;99.90;;;;;;5094176;28;20044;-82
2022/08/27 01:40:52;;;;;;;3.88;2.50;;;16.80;99.90;;;;;;5077255;28;20055;-82
2022/08/27 01:43:18;;;;;;;5.22;2.75;;;16.70;99.90;;;;;;5095115;28;20054;-82
2022/08/27 01:45:48;;;;;;;6.38;2.47;;;16.70;99.90;;;;;;5095056;28;20028;-82
2022/08/27 01:48:15;;;;;;;3.83;2.85;;;16.60;99.90;;;;;;5095155;28;20031;-82
2022/08/27 01:50:42;;;;;;;3.70;2.50;;;16.60;99.90;;;;;;5094932;28;20020;-82
2022/08/27 01:53:14;;;;;;;3.45;2.53;;;16.50;99.90;;;;;;5093907;28;20024;-82
2022/08/27 01:55:42;;;;;;;4.20;2.40;;;16.50;99.90;;;;;;5093879;28;20031;-82
2022/08/27 01:58:07;;;;;;;3.95;2.53;;;16.50;99.90;;;;;;5093118;28;20035;-82
2022/08/27 02:00:37;;;;;;;3.97;2.10;;;16.40;99.90;;;;;;5094611;28;20020;-82
2022/08/27 02:03:04;;;;;;;3.33;2.55;;;16.40;99.90;;;;;;5094640;28;20053;-82
2022/08/27 02:05:31;;;;;;;2.90;2.30;;;16.50;99.90;;;;;;5094548;28;20526;-82
2022/08/27 02:07:56;;;;;;;3.72;2.65;;;16.40;99.90;;;;;;5094641;28;20032;-82
2022/08/27 02:10:26;;;;;;;2.90;2.20;;;16.40;99.90;;;;;;5094575;28;20046;-82
2022/08/27 02:12:52;;;;;;;3.75;2.70;;;16.40;99.90;;;;;;5094596;28;20016;-82
2022/08/27 02:15:19;;;;;;;3.42;2.28;;;16.40;99.90;;;;;;5094356;28;20020;-82
2022/08/27 02:17:45;;;;;;;4.10;2.25;;;16.40;99.90;;;;;;5093316;28;20472;-82
2022/08/27 02:20:12;;;;;;;2.20;1.77;;;16.50;99.90;;;;;;5093182;28;20100;-82
2022/08/27 02:22:39;;;;;;;2.28;1.80;;;16.60;99.90;;;;;;5094496;28;20112;-82
2022/08/27 02:25:06;;;;;;;2.63;1.95;;;16.60;99.90;;;;;;5092252;28;20032;-83
2022/08/27 02:27:32;;;;;;;2.88;2.10;;;16.70;99.90;;;;;;5088256;28;20483;-82
2022/08/27 02:29:58;;;;;;;3.45;2.33;;;16.70;99.90;;;;;;5085278;28;20020;-82
2022/08/27 02:32:24;;;;;;;5.93;2.70;;;16.70;99.90;;;;;;5094389;28;20024;-82
2022/08/27 02:34:50;;;;;;;2.92;2.33;;;16.80;99.90;;;;;;5094332;28;20067;-82
2022/08/27 02:37:15;;;;;;;3.30;2.22;;;16.80;99.90;;;;;;5094038;28;20059;-82
2022/08/27 02:39:41;;;;;;;3.08;2.15;;;16.80;99.90;;;;;;5094182;28;20031;-82
2022/08/27 02:42:07;;;;;;;3.58;2.72;;;16.80;99.90;;;;;;5093850;28;20020;-82
2022/08/27 02:44:34;;;;;;;3.10;2.45;;;16.80;99.90;;;;;;5093843;28;20040;-82
2022/08/27 02:47:01;;;;;;;6.30;2.40;;;16.80;99.90;;;;;;5093609;28;20533;-82
2022/08/27 02:49:28;;;;;;;4.95;2.47;;;16.80;99.90;;;;;;5092552;28;20051;-82
2022/08/27 02:51:55;;;;;;;4.45;2.60;;;16.80;99.90;;;;;;5094464;28;20028;-82
2022/08/27 02:54:25;;;;;;;3.97;2.72;;;16.80;99.90;;;;;;5083142;28;20429;-82
2022/08/27 02:56:53;;;;;;;3.30;2.63;;;16.80;99.90;;;;;;5089990;28;20411;-82
2022/08/27 02:59:19;;;;;;;3.45;2.42;;;16.80;99.90;;;;;;5106695;28;20012;-82
2022/08/27 03:01:45;;;;;;;4.00;2.60;;;16.70;99.90;;;;;;5094035;28;20024;-82
2022/08/27 03:04:11;;;;;;;3.75;2.50;;;16.70;99.90;;;;;;5093973;28;20024;-82
2022/08/27 03:06:37;;;;;;;3.42;2.15;;;16.80;99.90;;;;;;5093788;28;20074;-82
2022/08/27 03:09:03;;;;;;;2.92;2.33;;;16.80;99.90;;;;;;5088939;28;20048;-82
2022/08/27 03:11:30;;;;;;;3.38;2.30;;;16.80;99.90;;;;;;5095605;28;20031;-82
2022/08/27 03:13:57;;;;;;;3.70;2.30;;;16.80;99.90;;;;;;5089822;28;20035;-82
2022/08/27 03:16:24;;;;;;;4.22;2.70;;;16.80;99.90;;;;;;5088930;28;20107;-82
2022/08/27 03:18:50;;;;;;;3.65;2.80;;;16.70;99.90;;;;;;5091841;28;20357;-82
2022/08/27 03:21:18;;;;;;;3.75;2.97;;;16.70;99.90;;;;;;5092601;28;20032;-83
2022/08/27 03:23:44;;;;;;;4.20;2.60;;;16.60;99.90;;;;;;5092348;28;20460;-83
2022/08/27 03:26:11;;;;;;;3.05;2.47;;;16.60;99.90;;;;;;5093043;28;20081;-83
2022/08/27 03:28:37;;;;;;;4.97;2.78;;;16.50;99.90;;;;;;5091886;28;20031;-83
2022/08/27 03:31:07;;;;;;;3.55;2.50;;;16.40;99.90;;;;;;5084380;28;20029;-83
2022/08/27 03:33:37;;;;;;;3.63;2.90;;;16.40;99.90;;;;;;5092567;28;20024;-83
2022/08/27 03:36:05;;;;;;;4.40;2.90;;;16.40;99.90;;;;;;5091080;28;20034;-83
2022/08/27 03:38:30;;;;;;;3.38;2.40;;;16.50;99.90;;;;;;5093679;28;20024;-83
2022/08/27 03:40:57;;;;;;;3.33;2.60;;;16.50;99.90;;;;;;5094213;28;20023;-82
2022/08/27 03:43:24;;;;;;;3.70;2.80;;;16.50;99.90;;;;;;5092130;28;20028;-83
2022/08/27 03:45:51;;;;;;;5.18;3.20;;;16.50;99.90;;;;;;5093303;28;20070;-82
2022/08/27 03:48:17;;;;;;;5.10;2.92;;;16.50;99.90;;;;;;5073923;28;20480;-83
2022/08/27 03:50:45;;;;;;;6.72;3.10;;;16.40;99.90;;;;;;5083074;28;20024;-83
2022/08/27 03:53:12;;;;;;;4.18;2.50;;;16.40;99.90;;;;;;5089111;28;20480;-83
2022/08/27 03:55:41;;;;;;;3.72;2.55;;;16.40;99.90;;;;;;5073555;28;20495;-83
2022/08/27 03:58:08;;;;;;;5.53;2.95;;;16.30;99.90;;;;;;5072176;28;20028;-83
2022/08/27 04:00:33;;;;;;;3.80;3.17;;;16.30;99.90;;;;;;5084496;28;20472;-83
2022/08/27 04:02:59;;;;;;;5.03;3.08;;;16.30;99.90;;;;;;5090587;28;20043;-83
2022/08/27 04:05:25;;;;;;;3.83;2.58;;;16.30;99.90;;;;;;5088982;28;20036;-81
2022/08/27 04:07:50;;;;;;;3.92;2.60;;;16.20;99.90;;;;;;5092962;28;20066;-81
2022/08/27 04:10:17;;;;;;;4.93;3.03;;;16.20;99.90;;;;;;5092207;28;20064;-81
2022/08/27 04:12:43;;;;;;;5.03;3.03;;;16.20;99.90;;;;;;5093513;28;20024;-81
2022/08/27 04:15:11;;;;;;;5.70;3.00;;;16.20;99.90;;;;;;5083457;28;20496;-81
2022/08/27 04:17:38;;;;;;;7.47;3.33;;;16.20;99.90;;;;;;5092120;28;20032;-81
2022/08/27 04:20:06;;;;;;;6.43;3.15;;;16.10;99.90;;;;;;5082144;28;20380;-81
2022/08/27 04:22:32;;;;;;;3.90;2.92;;;16.10;99.90;;;;;;5089103;28;20035;-81
2022/08/27 04:24:59;;;;;;;6.07;3.45;;;16.10;99.90;;;;;;5090020;28;20114;-81
2022/08/27 04:27:25;;;;;;;5.35;3.33;;;16.10;99.90;;;;;;5092891;28;20094;-81
2022/08/27 04:29:58;;;;;;;6.53;3.42;;;16.00;99.90;;;;;;5091952;28;20032;-82
2022/08/27 04:32:25;;;;;;;3.95;3.25;;;16.00;99.90;;;;;;5081257;28;20024;-81
2022/08/27 04:34:59;;;;;;;5.15;3.60;;;16.00;99.90;;;;;;5076744;28;20511;-82
2022/08/27 04:37:28;;;;;;;4.80;3.45;;;16.00;99.90;;;;;;5093224;28;20098;-81
2022/08/27 04:39:54;;;;;;;5.82;3.30;;;16.10;99.90;;;;;;5091910;28;20020;-81
2022/08/27 04:42:20;;;;;;;4.53;3.13;;;16.10;99.90;;;;;;5095457;28;20531;-82
2022/08/27 04:44:47;;;;;;;5.35;3.33;;;16.10;99.90;;;;;;5096216;28;20092;-81
2022/08/27 04:47:13;;;;;;;5.00;3.08;;;16.00;99.90;;;;;;5093937;28;20035;-81
2022/08/27 04:49:40;;;;;;;4.25;3.00;;;16.00;99.90;;;;;;5093589;28;20028;-81
2022/08/27 04:52:06;;;;;;;4.82;3.50;;;16.00;99.90;;;;;;5092586;28;20032;-81
2022/08/27 04:54:32;;;;;;;4.85;3.13;;;16.00;99.90;;;;;;5092650;28;20037;-81
2022/08/27 04:56:58;;;;;;;4.90;3.65;;;16.00;99.90;;;;;;5093753;28;20035;-81
2022/08/27 04:59:24;;;;;;;3.75;3.10;;;15.90;99.90;;;;;;5081430;28;20017;-82
2022/08/27 05:01:50;;;;;;;4.80;3.40;;;15.90;99.90;;;;;;5095607;28;20103;-81
2022/08/27 05:04:19;;;;;;;5.50;3.53;;;15.90;99.90;;;;;;5093513;28;20174;-82
2022/08/27 05:06:45;;;;;;;5.65;4.03;;;15.90;99.90;;;;;;5090282;28;20028;-81
2022/08/27 05:09:13;;;;;;;6.30;3.95;;;16.00;99.90;;;;;;5090050;28;20898;-81
2022/08/27 05:11:38;;;;;;;6.97;4.63;;;16.00;99.90;;;;;;5091727;28;20115;-82
2022/08/27 05:14:06;;;;;;;4.47;3.63;;;16.00;99.90;;;;;;5094963;28;20107;-81
2022/08/27 05:16:35;;;;;;;6.18;3.90;;;16.00;99.90;;;;;;5092914;28;20054;-82
2022/08/27 05:19:02;;;;;;;4.93;3.83;;;16.00;99.90;;;;;;5093562;28;20043;-82
2022/08/27 05:21:31;;;;;;;5.35;4.25;;;16.00;99.90;;;;;;5094199;28;20024;-81
2022/08/27 05:23:59;;;;;;;7.95;4.10;;;16.10;99.90;;;;;;5094306;28;20388;-82
2022/08/27 05:26:26;;;;;;;5.57;4.10;;;16.10;99.90;;;;;;5092565;28;20110;-82
2022/08/27 05:28:52;;;;;;;4.82;3.70;;;16.10;99.90;;;;;;5092784;28;20496;-82
2022/08/27 05:31:21;;;;;;;5.32;3.92;;;16.00;99.90;;;;;;5109245;28;20062;-82
2022/08/27 05:33:47;;;;;;;4.43;3.40;;;16.00;99.90;;;;;;5094154;28;20020;-82
2022/08/27 05:36:19;;;;;;;6.05;3.92;;;16.00;99.90;;;;;;5093460;28;20036;-82
2022/08/27 05:38:45;;;;;;;5.13;3.45;;;16.00;99.90;;;;;;5092423;28;20417;-82
2022/08/27 05:41:14;;;;;;;4.88;3.33;;;16.00;99.90;;;;;;5092751;28;20462;-81
2022/08/27 05:43:41;;;;;;;6.07;3.92;;;16.00;99.90;;;;;;5092718;28;20020;-81
2022/08/27 05:46:10;;;;;;;6.68;4.00;;;16.10;99.90;;;;;;5092486;28;20372;-83
2022/08/27 05:48:37;;;;;;;5.57;3.88;;;16.20;99.90;;;;;;5077054;28;20017;-82
2022/08/27 05:51:14;;;;;;;6.53;3.95;;;16.20;99.90;;;;;;5094109;28;20089;-82
2022/08/27 05:53:41;;;;;;;4.40;3.65;;;16.30;99.90;;;;;;5093446;28;20085;-82
2022/08/27 05:56:19;;;;;;;4.47;3.33;;;16.40;99.90;;;;;;5086838;28;20024;-82
2022/08/27 06:01:34;;;;;;;6.43;3.90;;;16.60;99.90;;;;;;5093334;28;20507;-82
2022/08/27 06:03:59;;;;;;;7.78;4.10;;;16.60;99.90;;;;;;5092927;28;20479;-82
2022/08/27 06:06:25;;;;;;;5.30;3.45;;;16.70;99.90;;;;;;5094685;28;20057;-82
2022/08/27 06:08:53;;;;;;;5.97;4.30;;;16.70;99.90;;;;;;5092959;28;20024;-82
2022/08/27 06:11:19;;;;;;;4.72;4.00;;;16.80;99.90;;;;;;5093609;28;20155;-82
2022/08/27 06:13:46;;;;;;;6.63;4.43;;;16.80;99.90;;;;;;5090772;28;20024;-82
2022/08/27 06:16:15;;;;;;;7.32;4.38;;;16.80;99.90;;;;;;5093162;28;20476;-82
2022/08/27 06:18:43;;;;;;;5.78;3.83;;;16.80;99.90;;;;;;5090555;28;20794;-82
2022/08/27 06:21:10;;;;;;;3.95;3.40;;;16.80;99.90;;;;;;5093113;28;20024;-82
2022/08/27 06:23:36;;;;;;;5.50;3.60;;;16.90;99.90;;;;;;5091037;28;20106;-82
2022/08/27 06:26:07;;;;;;;5.60;3.30;;;16.90;99.90;;;;;;5092676;28;20127;-82
2022/08/27 06:28:33;;;;;;;4.82;3.47;;;17.00;99.90;;;;;;5093282;28;20028;-82
2022/08/27 06:31:07;;;;;;;5.18;3.88;;;17.00;99.90;;;;;;5091822;28;20111;-82
2022/08/27 06:33:33;;;;;;;4.70;3.70;;;17.10;99.90;;;;;;5091633;28;20028;-82
2022/08/27 06:36:04;;;;;;;5.32;3.90;;;17.10;99.90;;;;;;5093427;28;20028;-82
2022/08/27 06:38:30;;;;;;;6.43;4.60;;;17.20;99.90;;;;;;5092850;28;20028;-82
2022/08/27 06:40:57;;;;;;;6.00;4.47;;;17.20;99.90;;;;;;5091471;28;20039;-82
2022/08/27 06:43:24;;;;;;;5.43;4.43;;;17.30;99.90;;;;;;5090705;28;20028;-82
2022/08/27 06:45:50;;;;;;;5.95;4.65;;;17.30;99.90;;;;;;5093507;28;20106;-82
2022/08/27 06:48:16;;;;;;;5.22;4.38;;;17.30;99.90;;;;;;5091303;28;20059;-82
2022/08/27 06:50:43;;;;;;;6.22;4.03;;;17.40;99.90;;;;;;5088430;28;20499;-83
2022/08/27 06:53:09;;;;;;;5.63;4.80;;;17.30;99.90;;;;;;5089866;28;20123;-82
2022/08/27 06:55:46;;;;;;;8.95;5.70;;;17.30;99.90;;;;;;5091994;28;20036;-82
2022/08/27 06:58:12;;;;;;;6.28;4.90;;;17.40;99.90;;;;;;5091862;28;20119;-82
2022/08/27 07:00:39;;;;;;;5.93;4.70;;;17.40;99.90;;;;;;5091322;28;20024;-82
2022/08/27 07:03:05;;;;;;;6.75;4.93;;;17.50;99.90;;;;;;5090122;28;20121;-82
2022/08/27 07:05:32;;;;;;;6.28;5.22;;;17.60;99.90;;;;;;5067358;28;20032;-82
2022/08/27 07:07:58;;;;;;;7.10;4.93;;;17.70;99.90;;;;;;5090656;28;20607;-82
2022/08/27 07:10:24;;;;;;;6.82;4.80;;;17.80;99.90;;;;;;5091098;28;20089;-82
2022/08/27 07:12:50;;;;;;;5.82;5.22;;;17.90;99.90;;;;;;5104215;28;20024;-82
2022/08/27 07:15:16;;;;;;;5.47;4.40;;;18.00;99.90;;;;;;5092180;28;20388;-82
2022/08/27 07:17:43;;;;;;;6.18;4.93;;;18.00;99.90;;;;;;5090225;28;20027;-82
2022/08/27 07:20:10;;;;;;;4.78;4.28;;;18.10;99.90;;;;;;5089797;28;20023;-82
2022/08/27 07:22:39;;;;;;;5.53;4.13;;;18.20;99.90;;;;;;5088611;28;20492;-82
2022/08/27 07:25:06;;;;;;;5.32;3.88;;;18.20;99.90;;;;;;5086005;28;20065;-82
2022/08/27 07:27:32;;;;;;;6.13;4.10;;;18.30;99.90;;;;;;5089093;28;20069;-81
2022/08/27 07:29:59;;;;;;;4.47;3.60;;;18.30;99.90;;;;;;5090312;28;20500;-82
2022/08/27 07:32:25;;;;;;;4.00;3.20;;;18.40;99.90;;;;;;5090455;28;20036;-82
2022/08/27 07:34:51;;;;;;;4.80;3.70;;;18.40;99.90;;;;;;5089721;28;20024;-82
2022/08/27 07:37:16;;;;;;;4.57;3.60;;;18.40;99.90;;;;;;5086541;28;20025;-82
2022/08/27 07:39:42;;;;;;;3.83;3.00;;;18.50;99.90;;;;;;5071141;28;20444;-81
2022/08/27 07:44:52;;;;;;;4.63;3.90;;;18.60;99.90;;;;;;5077633;28;20039;-82
2022/08/27 07:47:17;;;;;;;6.13;3.88;;;18.60;99.90;;;;;;5092851;28;20024;-81
2022/08/27 07:49:43;;;;;;;3.72;3.20;;;18.70;99.90;;;;;;5093698;28;20028;-82
2022/08/27 07:52:09;;;;;;;3.78;3.33;;;18.70;99.90;;;;;;5093273;28;20071;-82
2022/08/27 07:54:34;;;;;;;6.60;3.80;;;18.90;99.90;;;;;;5092145;28;20039;-82
2022/08/27 07:57:00;;;;;;;4.82;4.18;;;18.90;99.90;;;;;;5091867;28;20036;-82
2022/08/27 07:59:26;;;;;;;5.88;4.30;;;19.00;99.90;;;;;;5089344;28;20396;-82
2022/08/27 08:01:54;;;;;;;6.05;4.32;;;19.10;99.90;;;;;;5091528;28;20016;-82
2022/08/27 08:04:21;;;;;;;5.30;4.38;;;19.20;99.90;;;;;;5093218;28;20476;-82
2022/08/27 08:06:47;;;;;;;6.30;4.28;;;19.20;99.90;;;;;;5093114;28;20028;-81
2022/08/27 08:09:13;;;;;;;6.07;4.90;;;19.30;99.90;;;;;;5093155;28;20031;-82
2022/08/27 08:11:40;;;;;;;6.85;4.43;;;19.30;99.90;;;;;;5093356;28;20040;-82
2022/08/27 08:14:05;;;;;;;5.18;4.10;;;19.40;99.90;;;;;;5092490;28;20032;-82
2022/08/27 08:16:31;;;;;;;6.63;4.40;;;19.50;99.90;;;;;;5096005;28;20038;-82
2022/08/27 08:18:59;;;;;;;5.75;4.50;;;19.50;99.90;;;;;;5096801;28;20059;-82
2022/08/27 08:21:25;;;;;;;4.95;4.05;;;19.50;99.90;;;;;;5095558;28;20395;-82
2022/08/27 08:23:50;;;;;;;4.50;3.70;;;19.60;99.90;;;;;;5096137;28;20039;-82
2022/08/27 08:26:16;;;;;;;4.38;3.70;;;19.70;99.90;;;;;;5077688;28;20037;-83
2022/08/27 08:28:43;;;;;;;5.47;3.95;;;19.80;99.90;;;;;;5095850;28;20497;-83
2022/08/27 08:31:09;;;;;;;6.45;3.67;;;20.00;99.90;;;;;;5095822;28;20035;-83
2022/08/27 08:33:35;;;;;;;4.43;3.92;;;20.10;99.90;;;;;;5095407;28;20032;-83
2022/08/27 08:36:08;;;;;;;5.53;3.92;;;20.20;99.90;;;;;;5096447;28;20097;-83
2022/08/27 08:38:35;;;;;;;7.80;4.20;;;20.40;99.90;;;;;;5096944;28;20013;-83
2022/08/27 08:41:01;;;;;;;4.65;3.97;;;20.40;99.90;;;;;;5095175;28;20102;-83
2022/08/27 08:43:39;;;;;;;6.25;4.32;;;20.50;99.90;;;;;;5094871;28;20032;-83
2022/08/27 08:46:20;;;;;;;6.05;4.10;;;20.60;99.90;;;;;;5095888;28;20034;-83
2022/08/27 08:48:51;;;;;;;6.03;4.50;;;20.60;99.90;;;;;;5096283;28;20046;-83
2022/08/27 08:51:31;;;;;;;4.68;3.70;;;20.80;99.90;;;;;;5095532;28;20032;-83
2022/08/27 08:54:00;;;;;;;4.15;3.40;;;20.90;99.90;;;;;;5077878;28;20025;-83
2022/08/27 08:56:53;;;;;;;4.00;3.45;;;21.10;99.90;;;;;;5090343;28;20483;-84
2022/08/27 08:59:18;;;;;;;4.57;3.22;;;21.30;99.90;;;;;;5096459;28;20028;-83
2022/08/27 09:01:44;;;;;;;5.05;3.75;;;21.40;99.90;;;;;;5095574;28;20031;-83
2022/08/27 09:04:11;;;;;;;5.45;3.92;;;21.60;99.90;;;;;;5097084;28;20031;-83
2022/08/27 09:06:59;;;;;;;5.75;3.72;;;21.70;99.90;;;;;;5078829;28;20480;-83
2022/08/27 09:09:47;;;;;;;5.75;3.90;;;21.80;99.90;;;;;;5096539;28;20020;-83
2022/08/27 09:12:23;;;;;;;4.60;3.50;;;22.00;99.90;;;;;;5094944;28;20037;-83
2022/08/27 09:14:55;;;;;;;8.68;3.78;;;22.10;99.90;;;;;;5095759;28;20401;-83
2022/08/27 09:17:22;;;;;;;3.50;3.20;;;22.20;99.90;;;;;;5096141;28;20092;-84
2022/08/27 09:19:47;;;;;;;5.80;3.80;;;22.30;99.90;;;;;;5094730;28;20020;-82
2022/08/27 09:22:41;;;;;;;4.30;3.83;;;22.40;99.90;;;;;;5095174;28;20455;-84
2022/08/27 09:25:20;;;;;;;4.35;3.50;;;22.40;99.90;;;;;;5081292;28;20081;-86
2022/08/27 09:27:47;;;;;;;3.83;2.90;;;22.40;99.90;;;;;;5097618;28;20034;-84
2022/08/27 09:30:22;;;;;;;5.25;3.90;;;22.50;99.90;;;;;;5093111;28;20028;-85
2022/08/27 09:32:58;;;;;;;3.92;3.10;;;22.50;99.90;;;;;;5094981;28;20051;-84
2022/08/27 09:35:26;;;;;;;6.85;3.80;;;22.50;99.90;;;;;;5095677;28;20020;-85
2022/08/27 09:37:56;;;;;;;4.43;3.47;;;22.60;99.90;;;;;;5094238;28;20032;-84
2022/08/27 09:40:31;;;;;;;3.60;3.08;;;22.60;99.90;;;;;;5095872;28;20027;-85
2022/08/27 09:43:22;;;;;;;5.63;3.65;;;22.60;99.90;;;;;;5094325;28;20025;-84
2022/08/27 09:45:54;;;;;;;5.45;3.88;;;22.60;99.90;;;;;;5090327;28;20024;-84
2022/08/27 09:48:28;;;;;;;4.57;3.65;;;22.60;99.90;;;;;;5095496;28;20028;-84
2022/08/27 09:51:00;;;;;;;5.28;3.70;;;22.60;99.90;;;;;;5095374;28;20031;-84
2022/08/27 09:53:46;;;;;;;4.88;3.67;;;22.50;99.90;;;;;;5094054;28;20073;-83
2022/08/27 09:56:39;;;;;;;4.35;3.38;;;22.50;99.90;;;;;;5095470;28;20028;-84
2022/08/27 09:59:10;;;;;;;4.63;3.00;;;22.50;99.90;;;;;;5094296;28;20101;-84
2022/08/27 10:01:57;;;;;;;3.80;3.35;;;22.50;99.90;;;;;;5092973;28;20388;-84
2022/08/27 10:04:46;;;;;;;4.82;3.53;;;22.60;99.90;;;;;;5094744;28;20024;-84
2022/08/27 10:07:59;;;;;;;4.70;3.38;;;22.70;99.90;;;;;;5088800;28;20502;-84
2022/08/27 10:10:43;;;;;;;3.75;2.70;;;22.80;99.90;;;;;;5089191;27;20047;-83
2022/08/27 10:13:17;;;;;;;3.88;2.97;;;22.90;99.90;;;;;;5094711;28;20028;-84
2022/08/27 10:16:11;;;;;;;4.00;3.00;;;23.00;99.90;;;;;;5093223;28;20107;-83
2022/08/27 10:18:48;;;;;;;4.45;2.97;;;23.20;99.40;;;;;;5067930;28;20036;-83
2022/08/27 10:21:40;;;;;;;3.60;2.90;;;23.40;98.60;;;;;;5094276;28;20392;-83
2022/08/27 10:24:41;;;;;;;4.00;3.17;;;23.60;98.80;;;;;;5091148;28;20032;-84
2022/08/27 10:27:12;;;;;;;3.58;2.75;;;23.80;99.00;;;;;;5077024;28;20384;-83
2022/08/27 10:30:09;;;;;;;4.55;3.20;;;24.00;98.60;;;;;;5093039;28;20023;-83
2022/08/27 10:32:38;;;;;;;3.80;2.60;;;24.20;98.70;;;;;;5093479;28;20533;-83
2022/08/27 10:35:12;;;;;;;4.78;3.20;;;24.40;97.70;;;;;;5094469;28;20028;-84
2022/08/27 10:37:51;;;;;;;3.47;2.70;;;24.60;96.40;;;;;;5094026;28;20028;-83
2022/08/27 10:40:19;;;;;;;4.15;2.90;;;24.80;95.60;;;;;;5094859;28;20013;-84
2022/08/27 10:42:58;;;;;;;3.42;2.90;;;25.00;95.90;;;;;;5093433;28;20051;-84
2022/08/27 10:45:46;;;;;;;3.13;2.67;;;25.10;96.40;;;;;;5093029;28;20032;-84
2022/08/27 10:49:00;;;;;;;6.45;3.33;;;25.20;96.00;;;;;;5087835;28;20062;-84
2022/08/27 10:51:52;;;;;;;3.95;2.95;;;25.40;96.10;;;;;;5049874;28;20029;-84
2022/08/27 10:54:34;;;;;;;4.05;2.80;;;25.20;94.80;;;;;;5087024;28;20024;-83
2022/08/27 10:57:22;;;;;;;4.05;2.75;;;25.10;94.70;;;;;;5085798;28;20031;-84
2022/08/27 11:00:09;;;;;;;4.97;2.92;;;25.00;93.00;;;;;;5090878;28;20028;-84
2022/08/27 11:02:46;;;;;;;5.25;2.80;;;25.00;93.50;;;;;;5093383;28;20020;-84
2022/08/27 11:05:51;;;;;;;3.50;2.70;;;24.90;93.30;;;;;;5091170;28;20475;-84
2022/08/27 11:08:39;;;;;;;3.10;2.20;;;24.90;94.40;;;;;;5064033;28;20067;-84
2022/08/27 11:11:10;;;;;;;3.00;2.38;;;25.10;92.20;;;;;;5045680;28;20115;-84
2022/08/27 11:13:45;;;;;;;3.50;2.35;;;25.10;92.10;;;;;;5076700;28;20040;-84
2022/08/27 11:16:19;;;;;;;3.00;2.33;;;25.10;92.30;;;;;;5091946;28;20058;-84
2022/08/27 11:18:56;;;;;;;2.85;2.10;;;25.20;91.70;;;;;;5094948;28;20021;-85
2022/08/27 11:21:50;;;;;;;3.90;2.70;;;25.30;91.70;;;;;;5094276;28;20020;-84
2022/08/27 11:24:39;;;;;;;4.57;2.35;;;25.40;92.60;;;;;;5093197;28;20016;-84
2022/08/27 11:27:07;;;;;;;3.42;2.30;;;25.50;91.10;;;;;;5091976;28;20024;-85
2022/08/27 11:29:43;;;;;;;3.40;2.33;;;25.60;88.30;;;;;;5093538;28;20016;-84
2022/08/27 11:32:29;;;;;;;4.18;2.15;;;25.60;90.50;;;;;;5091806;28;20074;-85
2022/08/27 11:35:01;;;;;;;2.97;2.40;;;25.60;90.80;;;;;;5091550;28;20020;-84
2022/08/27 11:37:37;;;;;;;3.83;2.30;;;25.70;88.20;;;;;;5090544;28;20035;-84
2022/08/27 11:40:09;;;;;;;3.40;2.28;;;25.60;88.20;;;;;;5091096;28;20020;-84
2022/08/27 11:42:55;;;;;;;4.78;2.05;;;25.50;87.60;;;;;;5091535;28;20042;-84
2022/08/27 11:45:27;;;;;;;3.40;2.20;;;25.50;89.30;;;;;;5089772;28;20047;-84
2022/08/27 11:47:59;;;;;;;2.92;2.20;;;25.60;88.00;;;;;;5090809;28;20040;-85
2022/08/27 11:50:28;;;;;;;3.17;2.40;;;25.80;85.10;;;;;;5095691;28;20024;-84
2022/08/27 11:53:04;;;;;;;3.55;2.05;;;25.80;88.00;;;;;;5097153;28;20383;-84
2022/08/27 11:55:37;;;;;;;5.38;2.15;;;25.80;86.00;;;;;;5092446;28;20182;-84
2022/08/27 11:58:29;;;;;;;3.08;2.25;;;25.80;85.10;;;;;;5095331;28;20024;-83
2022/08/27 12:00:56;;;;;;;2.80;2.20;;;26.00;87.40;;;;;;5080116;28;20023;-84
2022/08/27 12:03:26;;;;;;;3.80;2.80;;;26.00;86.60;;;;;;5095465;28;20031;-84
2022/08/27 12:05:54;;;;;;;3.75;2.75;;;26.10;84.40;;;;;;5089933;28;20032;-85
2022/08/27 12:08:20;;;;;;;3.40;2.20;;;26.20;86.70;;;;;;5095606;28;20060;-84
2022/08/27 12:11:23;;;;;;;3.17;2.08;;;26.20;84.30;;;;;;5097098;28;20066;-84
2022/08/27 12:14:07;;;;;;;7.22;2.25;;;26.20;85.90;;;;;;5095746;28;20515;-84
2022/08/27 12:16:54;;;;;;;3.05;2.40;;;26.40;88.50;;;;;;5097069;28;20048;-84
2022/08/27 12:19:32;;;;;;;2.80;2.15;;;26.50;83.90;;;;;;5095956;28;20374;-85
2022/08/27 12:22:12;;;;;;;6.25;2.50;;;26.40;87.20;;;;;;5096684;28;20020;-84
2022/08/27 12:24:52;;;;;;;4.18;2.20;;;26.50;86.00;;;;;;5096013;28;20016;-85
2022/08/27 12:27:23;;;;;;;2.38;2.05;;;26.70;85.90;;;;;;5095932;28;20593;-84
2022/08/27 12:29:58;;;;;;;3.15;2.05;;;26.60;84.10;;;;;;5101293;28;20028;-84
2022/08/27 12:32:43;;;;;;;3.55;2.33;;;26.70;82.40;;;;;;5096740;28;20111;-84
2022/08/27 12:35:13;;;;;;;3.20;2.30;;;26.70;83.00;;;;;;5095041;28;20127;-83
2022/08/27 12:37:45;;;;;;;2.95;2.45;;;26.70;81.90;;;;;;5095008;28;20523;-84
2022/08/27 12:40:24;;;;;;;3.80;2.45;;;26.60;83.40;;;;;;5094959;28;20107;-83
2022/08/27 12:42:51;;;;;;;3.13;2.53;;;26.60;82.90;;;;;;5091135;28;20074;-85
2022/08/27 12:45:24;;;;;;;3.65;2.33;;;26.50;82.00;;;;;;5095804;28;20031;-84
2022/08/27 12:47:52;;;;;;;2.65;2.10;;;26.50;80.00;;;;;;5094446;28;20020;-84
2022/08/27 12:50:28;;;;;;;4.13;2.50;;;26.30;82.30;;;;;;5094233;28;20035;-85
2022/08/27 12:53:12;;;;;;;4.55;2.70;;;26.30;83.10;;;;;;5093963;28;20027;-84
2022/08/27 12:55:52;;;;;;;3.85;2.45;;;26.20;82.70;;;;;;5093773;28;20028;-85
2022/08/27 12:58:30;;;;;;;2.90;2.25;;;26.20;84.90;;;;;;5093392;28;20035;-84
2022/08/27 13:01:40;;;;;;;5.35;2.55;;;26.20;82.50;;;;;;5093224;28;20363;-84
2022/08/27 13:04:20;;;;;;;6.20;2.63;;;26.20;81.80;;;;;;5053407;28;20017;-85
2022/08/27 13:06:46;;;;;;;2.95;1.83;;;26.20;84.50;;;;;;5093959;28;20107;-85
2022/08/27 13:09:12;;;;;;;3.88;2.50;;;26.20;82.10;;;;;;5077335;28;20132;-83
2022/08/27 13:11:47;;;;;;;3.40;2.17;;;26.00;81.60;;;;;;5094735;28;20396;-85
2022/08/27 13:14:19;;;;;;;3.03;1.90;;;25.70;81.70;;;;;;5094146;28;20020;-84